createdAt,value
2018-04-23T00:00:16.893Z,100611
2018-04-23T00:05:19.979Z,100613
2018-04-23T00:10:23.074Z,100593
2018-04-23T00:15:26.178Z,100580
2018-04-23T00:20:29.667Z,100561
2018-04-23T00:25:34.105Z,100595
2018-04-23T00:30:37.945Z,100592
2018-04-23T00:35:41.799Z,100593
2018-04-23T00:40:45.675Z,100565
2018-04-23T00:45:49.534Z,100563
2018-04-23T00:50:52.623Z,100562
2018-04-23T00:55:55.729Z,100556
2018-04-23T01:00:58.819Z,100554
2018-04-23T01:06:02.671Z,100555
2018-04-23T01:11:05.789Z,100568
2018-04-23T01:16:09.282Z,100575
2018-04-23T01:21:13.130Z,100573
2018-04-23T01:26:17.150Z,100576
2018-04-23T01:31:20.646Z,100580
2018-04-23T01:36:25.086Z,100586
2018-04-23T01:41:28.930Z,100598
2018-04-23T01:46:32.025Z,100604
2018-04-23T01:51:35.502Z,100604
2018-04-23T01:56:38.610Z,100617
2018-04-23T02:01:41.699Z,100635
2018-04-23T02:06:45.542Z,100639
2018-04-23T02:11:49.042Z,100654
2018-04-23T02:16:53.642Z,100641
2018-04-23T02:21:57.510Z,100616
2018-04-23T02:27:01.370Z,100611
2018-04-23T02:32:04.463Z,100614
2018-04-23T02:37:07.574Z,100616
2018-04-23T02:42:11.811Z,100621
2018-04-23T02:47:14.898Z,100626
2018-04-23T02:52:18.770Z,100620
2018-04-23T02:57:22.625Z,100644
2018-04-23T03:02:26.843Z,100654
2018-04-23T03:07:29.949Z,100651
2018-04-23T03:12:33.433Z,100643
2018-04-23T03:17:36.533Z,100645
2018-04-23T03:22:40.009Z,100641
2018-04-23T03:27:43.113Z,100646
2018-04-23T03:32:47.347Z,100648
2018-04-23T03:37:51.185Z,100645
2018-04-23T03:42:54.670Z,100660
2018-04-23T03:47:57.766Z,100669
2018-04-23T03:53:01.266Z,100672
2018-04-23T03:58:04.752Z,100669
2018-04-23T04:03:08.227Z,100672
2018-04-23T04:08:11.314Z,100673
2018-04-23T04:13:32.167Z,100668
2018-04-23T04:18:45.752Z,100660
2018-04-23T04:23:49.316Z,100659
2018-04-23T04:28:53.260Z,100673
2018-04-23T04:33:56.452Z,100676
2018-04-23T04:38:59.963Z,100683
2018-04-23T04:44:03.051Z,100676
2018-04-23T04:49:06.139Z,100684
2018-04-23T04:54:10.155Z,100697
2018-04-23T04:59:13.239Z,100697
2018-04-23T05:04:16.327Z,100698
2018-04-23T05:09:20.183Z,100704
2018-04-23T05:14:23.271Z,100700
2018-04-23T05:19:27.714Z,100703
2018-04-23T05:24:30.811Z,100713
2018-04-23T05:29:34.663Z,100733
2018-04-23T05:34:38.095Z,100723
2018-04-23T05:39:42.325Z,100733
2018-04-23T05:44:45.816Z,100733
2018-04-23T05:49:49.322Z,100731
2018-04-23T05:54:53.254Z,100742
2018-04-23T05:59:57.697Z,100759
2018-04-23T06:05:02.143Z,100759
2018-04-23T06:10:05.235Z,100764
2018-04-23T06:15:09.671Z,100771
2018-04-23T06:20:13.547Z,100769
2018-04-23T06:25:16.625Z,100777
2018-04-23T06:30:21.604Z,100786
2018-04-23T06:35:24.688Z,100787
2018-04-23T06:40:28.907Z,100786
2018-04-23T06:45:32.755Z,100796
2018-04-23T06:50:37.353Z,100798
2018-04-23T06:55:42.430Z,100809
2018-04-23T07:00:45.531Z,100813
2018-04-23T07:05:49.970Z,100824
2018-04-23T07:10:54.563Z,100826
2018-04-23T07:15:58.784Z,100827
2018-04-23T07:21:01.871Z,100835
2018-04-23T07:26:05.718Z,100835
2018-04-23T07:31:08.803Z,100841
2018-04-23T07:36:12.656Z,100832
2018-04-23T07:41:15.735Z,100841
2018-04-23T07:46:18.823Z,100848
2018-04-23T07:51:24.153Z,100847
2018-04-23T07:56:27.239Z,100852
2018-04-23T08:01:31.083Z,100857
2018-04-23T08:06:35.585Z,100859
2018-04-23T08:11:38.994Z,100865
2018-04-23T08:16:42.839Z,100858
2018-04-23T08:21:45.927Z,100860
2018-04-23T08:26:49.011Z,100867
2018-04-23T08:31:53.278Z,100869
2018-04-23T08:36:56.343Z,100870
2018-04-23T08:42:00.195Z,100871
2018-04-23T08:47:03.290Z,100872
2018-04-23T08:52:07.139Z,100866
2018-04-23T08:57:11.002Z,100881
2018-04-23T09:02:14.096Z,100891
2018-04-23T09:07:17.199Z,100901
2018-04-23T09:12:20.282Z,100914
2018-04-23T09:17:24.154Z,100912
2018-04-23T09:22:27.248Z,100913
2018-04-23T09:27:31.086Z,100911
2018-04-23T09:32:34.567Z,100909
2018-04-23T09:37:38.439Z,100909
2018-04-23T09:42:42.878Z,100911
2018-04-23T09:47:45.963Z,100910
2018-04-23T09:52:49.068Z,100905
2018-04-23T09:57:53.499Z,100906
2018-04-23T10:02:56.583Z,100905
2018-04-23T10:08:01.017Z,100919
2018-04-23T10:13:17.297Z,100923
2018-04-23T10:18:21.440Z,100921
2018-04-23T10:23:25.898Z,100928
2018-04-23T10:28:30.354Z,100935
2018-04-23T10:33:33.462Z,100933
2018-04-23T10:38:36.658Z,100943
2018-04-23T10:43:39.763Z,100942
2018-04-23T10:48:42.883Z,100932
2018-04-23T10:53:45.976Z,100945
2018-04-23T10:58:49.834Z,100950
2018-04-23T11:03:54.269Z,100940
2018-04-23T11:08:57.383Z,100945
2018-04-23T11:14:01.827Z,100944
2018-04-23T11:19:05.302Z,100945
2018-04-23T11:24:08.395Z,100942
2018-04-23T11:29:11.508Z,100946
2018-04-23T11:34:16.072Z,100937
2018-04-23T11:39:20.795Z,100935
2018-04-23T11:44:23.903Z,100940
2018-04-23T11:49:27.828Z,100945
2018-04-23T11:54:31.679Z,100949
2018-04-23T11:59:34.852Z,100949
2018-04-23T12:04:38.728Z,100944
2018-04-23T12:09:42.302Z,100929
2018-04-23T12:14:46.522Z,100931
2018-04-23T12:19:49.607Z,100937
2018-04-23T12:24:53.827Z,100932
2018-04-23T12:29:56.976Z,100927
2018-04-23T12:35:01.403Z,100929
2018-04-23T12:40:04.523Z,100927
2018-04-23T12:45:08.004Z,100935
2018-04-23T12:50:11.855Z,100931
2018-04-23T12:55:14.954Z,100922
2018-04-23T13:00:20.131Z,100931
2018-04-23T13:05:23.225Z,100929
2018-04-23T13:10:27.642Z,100921
2018-04-23T13:15:30.717Z,100918
2018-04-23T13:20:35.498Z,100916
2018-04-23T13:25:39.285Z,100899
2018-04-23T13:30:43.710Z,100890
2018-04-23T13:35:48.153Z,100897
2018-04-23T13:40:52.801Z,100875
2018-04-23T13:45:56.270Z,100875
2018-04-23T13:51:00.162Z,100877
2018-04-23T13:56:04.583Z,100867
2018-04-23T14:01:09.038Z,100862
2018-04-23T14:06:12.515Z,100860
2018-04-23T14:11:17.122Z,100854
2018-04-23T14:16:20.200Z,100853
2018-04-23T14:21:24.104Z,100843
2018-04-23T14:26:27.967Z,100846
2018-04-23T14:31:31.811Z,100851
2018-04-23T14:36:34.915Z,100837
2018-04-23T14:41:38.016Z,100834
2018-04-23T14:46:42.261Z,100840
2018-04-23T14:51:45.342Z,100846
2018-04-23T14:56:48.634Z,100839
2018-04-23T15:01:52.158Z,100847
2018-04-23T15:06:56.006Z,100845
2018-04-23T15:12:00.441Z,100854
2018-04-23T15:17:04.879Z,100849
2018-04-23T15:22:08.730Z,100851
2018-04-23T15:27:11.810Z,100860
2018-04-23T15:32:16.395Z,100866
2018-04-23T15:37:19.495Z,100873
2018-04-23T15:42:22.595Z,100875
2018-04-23T15:47:26.444Z,100881
2018-04-23T15:52:29.936Z,100891
2018-04-23T15:57:33.495Z,100897
2018-04-23T16:02:37.910Z,100909
2018-04-23T16:07:41.390Z,100904
2018-04-23T16:12:45.618Z,100901
2018-04-23T16:17:49.471Z,100898
2018-04-23T16:22:53.334Z,100896
2018-04-23T16:27:56.802Z,100898
2018-04-23T16:32:59.887Z,100899
2018-04-23T16:38:03.379Z,100906
2018-04-23T16:43:07.618Z,100902
2018-04-23T16:48:12.050Z,100906
2018-04-23T16:53:15.547Z,100906
2018-04-23T16:58:19.868Z,100901
2018-04-23T17:03:23.720Z,100902
2018-04-23T17:08:27.210Z,100911
2018-04-23T17:13:30.307Z,100907
2018-04-23T17:18:33.778Z,100909
2018-04-23T17:23:38.219Z,100904
2018-04-23T17:28:41.694Z,100905
2018-04-23T17:33:44.778Z,100911
2018-04-23T17:38:47.866Z,100918
2018-04-23T17:43:50.977Z,100924
2018-04-23T17:48:54.095Z,100927
2018-04-23T17:53:57.994Z,100927
2018-04-23T17:59:01.843Z,100933
2018-04-23T18:04:04.933Z,100937
2018-04-23T18:09:08.437Z,100931
2018-04-23T18:14:13.104Z,100933
2018-04-23T18:19:16.304Z,100939
2018-04-23T18:24:19.462Z,100936
2018-04-23T18:29:23.399Z,100942
2018-04-23T18:34:26.533Z,100944
2018-04-23T18:39:30.516Z,100951
2018-04-23T18:44:34.184Z,100947
2018-04-23T18:49:38.091Z,100950
2018-04-23T18:54:41.232Z,100953
2018-04-23T18:59:45.764Z,100958
2018-04-23T19:04:50.181Z,100957
2018-04-23T19:09:54.088Z,100964
2018-04-23T19:14:57.191Z,100974
2018-04-23T19:20:00.304Z,100983
2018-04-23T19:25:03.792Z,100989
2018-04-23T19:30:08.024Z,100992
2018-04-23T19:35:12.458Z,100990
2018-04-23T19:40:16.833Z,101001
2018-04-23T19:45:19.930Z,101015
2018-04-23T19:50:24.374Z,101020
2018-04-23T19:55:28.238Z,101025
2018-04-23T20:00:32.114Z,101032
2018-04-23T20:05:35.603Z,101034
2018-04-23T20:10:39.843Z,101041
2018-04-23T20:15:44.083Z,101040
2018-04-23T20:20:48.620Z,101040
2018-04-23T20:25:53.207Z,101040
2018-04-23T20:30:56.291Z,101043
2018-04-23T20:35:59.383Z,101041
2018-04-23T20:41:02.486Z,101043
2018-04-23T20:46:06.379Z,101040
2018-04-23T20:51:10.819Z,101046
2018-04-23T20:56:14.303Z,101049
2018-04-23T21:01:18.180Z,101041
2018-04-23T21:06:22.035Z,101047
2018-04-23T21:11:26.294Z,101047
2018-04-23T21:16:29.816Z,101057
2018-04-23T21:21:33.696Z,101061
2018-04-23T21:26:36.793Z,101065
2018-04-23T21:31:41.222Z,101068
2018-04-23T21:36:45.657Z,101075
2018-04-23T21:41:49.506Z,101073
2018-04-23T21:46:52.604Z,101076
2018-04-23T21:51:55.692Z,101073
2018-04-23T21:57:00.347Z,101083
2018-04-23T22:02:03.868Z,101084
2018-04-23T22:07:07.699Z,101076
2018-04-23T22:12:10.792Z,101080
2018-04-23T22:17:15.235Z,101080
2018-04-23T22:22:18.751Z,101084
2018-04-23T22:27:23.231Z,101091
2018-04-23T22:32:27.793Z,101094
2018-04-23T22:37:32.255Z,101092
2018-04-23T22:42:35.739Z,101094
2018-04-23T22:47:39.232Z,101096
2018-04-23T22:52:42.343Z,101100
2018-04-23T22:57:45.459Z,101108
2018-04-23T23:02:50.064Z,101108
2018-04-23T23:07:53.556Z,101116
2018-04-23T23:12:57.771Z,101120
2018-04-23T23:18:00.858Z,101122
2018-04-23T23:23:04.703Z,101123
2018-04-23T23:28:08.572Z,101132
2018-04-23T23:33:13.190Z,101127
2018-04-23T23:38:17.428Z,101133
2018-04-23T23:43:21.279Z,101135
2018-04-23T23:48:26.067Z,101137
2018-04-23T23:53:30.075Z,101144
2018-04-23T23:58:34.451Z,101146
